sensor_id;sensor_type;location;lat;lon;timestamp;pressure;altitude;pressure_sealevel;temperature;humidity
61136;BME280;47021;51.340;12.432;2023-12-28T06:57:53;99888.09;;;14.74;45.73
61136;BME280;47021;51.340;12.432;2023-12-28T07:00:24;99881.03;;;14.66;46.11
61136;BME280;47021;51.340;12.432;2023-12-28T07:02:49;99875.94;;;14.73;46.02
61136;BME280;47021;51.340;12.432;2023-12-28T07:05:17;99877.50;;;15.16;45.02
61136;BME280;47021;51.340;12.432;2023-12-28T07:07:42;99881.16;;;14.65;46.20
61136;BME280;47021;51.340;12.432;2023-12-28T07:10:08;99877.66;;;14.48;46.64
61136;BME280;47021;51.340;12.432;2023-12-28T07:12:33;99882.47;;;14.01;47.82
61136;BME280;47021;51.340;12.432;2023-12-28T07:14:59;99872.94;;;14.00;48.49
61136;BME280;47021;51.340;12.432;2023-12-28T07:17:24;99868.91;;;14.40;47.89
61136;BME280;47021;51.340;12.432;2023-12-28T07:19:51;99871.03;;;14.10;48.98
61136;BME280;47021;51.340;12.432;2023-12-28T07:22:16;99886.44;;;14.05;49.00
61136;BME280;47021;51.340;12.432;2023-12-28T07:24:43;99898.53;;;14.50;48.27
61136;BME280;47021;51.340;12.432;2023-12-28T07:27:09;99906.22;;;14.43;48.83
61136;BME280;47021;51.340;12.432;2023-12-28T07:29:36;99898.72;;;14.05;49.48
61136;BME280;47021;51.340;12.432;2023-12-28T07:32:03;99913.44;;;13.72;51.09
61136;BME280;47021;51.340;12.432;2023-12-28T07:34:30;99905.75;;;13.96;51.22
61136;BME280;47021;51.340;12.432;2023-12-28T07:36:56;99897.34;;;14.19;51.28
61136;BME280;47021;51.340;12.432;2023-12-28T07:39:21;99898.06;;;14.54;50.54
61136;BME280;47021;51.340;12.432;2023-12-28T07:41:48;99902.88;;;14.75;49.49
61136;BME280;47021;51.340;12.432;2023-12-28T07:44:14;99896.09;;;14.56;49.74
61136;BME280;47021;51.340;12.432;2023-12-28T07:46:40;99891.41;;;14.42;49.71
61136;BME280;47021;51.340;12.432;2023-12-28T07:51:54;99933.91;;;13.86;49.89
61136;BME280;47021;51.340;12.432;2023-12-28T07:54:19;99942.00;;;14.19;50.03
61136;BME280;47021;51.340;12.432;2023-12-28T07:56:45;99952.94;;;13.88;50.68
61136;BME280;47021;51.340;12.432;2023-12-28T07:59:18;99937.16;;;15.07;48.02
61136;BME280;47021;51.340;12.432;2023-12-28T08:01:45;99941.09;;;15.03;47.61
61136;BME280;47021;51.340;12.432;2023-12-28T08:04:10;99955.69;;;14.56;48.70
61136;BME280;47021;51.340;12.432;2023-12-28T08:06:38;99947.41;;;14.76;47.97
61136;BME280;47021;51.340;12.432;2023-12-28T08:09:20;99954.44;;;15.18;47.13
61136;BME280;47021;51.340;12.432;2023-12-28T08:11:46;99955.47;;;15.33;47.08
61136;BME280;47021;51.340;12.432;2023-12-28T08:14:23;99940.50;;;15.25;47.29
61136;BME280;47021;51.340;12.432;2023-12-28T08:16:51;99933.22;;;14.61;48.56
61136;BME280;47021;51.340;12.432;2023-12-28T08:19:16;99942.00;;;14.44;49.55
61136;BME280;47021;51.340;12.432;2023-12-28T08:21:41;99938.44;;;14.95;48.12
61136;BME280;47021;51.340;12.432;2023-12-28T08:24:08;99939.56;;;14.84;48.32
61136;BME280;47021;51.340;12.432;2023-12-28T08:26:33;99945.13;;;14.81;48.68
61136;BME280;47021;51.340;12.432;2023-12-28T08:28:58;99944.41;;;15.13;48.07
61136;BME280;47021;51.340;12.432;2023-12-28T08:31:32;99950.19;;;14.75;49.14
61136;BME280;47021;51.340;12.432;2023-12-28T08:34:09;99956.41;;;15.16;48.26
61136;BME280;47021;51.340;12.432;2023-12-28T08:36:34;99968.53;;;14.67;48.65
61136;BME280;47021;51.340;12.432;2023-12-28T08:38:59;99980.75;;;14.42;49.74
61136;BME280;47021;51.340;12.432;2023-12-28T08:41:31;99976.00;;;14.46;50.14
61136;BME280;47021;51.340;12.432;2023-12-28T08:43:56;99983.38;;;15.10;48.28
61136;BME280;47021;51.340;12.432;2023-12-28T08:46:22;99973.25;;;15.39;48.79
61136;BME280;47021;51.340;12.432;2023-12-28T08:48:52;99978.91;;;15.68;47.51
61136;BME280;47021;51.340;12.432;2023-12-28T08:51:32;99980.25;;;15.22;48.18
61136;BME280;47021;51.340;12.432;2023-12-28T08:54:24;99983.41;;;15.26;47.79
61136;BME280;47021;51.340;12.432;2023-12-28T08:56:49;99979.94;;;15.25;48.15
61136;BME280;47021;51.340;12.432;2023-12-28T08:59:21;99983.53;;;14.41;50.17
61136;BME280;47021;51.340;12.432;2023-12-28T09:04:45;99992.25;;;14.75;49.49
61136;BME280;47021;51.340;12.432;2023-12-28T09:07:29;99994.88;;;14.24;50.17
61136;BME280;47021;51.340;12.432;2023-12-28T09:09:56;100005.97;;;14.61;49.72
61136;BME280;47021;51.340;12.432;2023-12-28T09:12:27;100010.06;;;14.89;49.23
61136;BME280;47021;51.340;12.432;2023-12-28T09:14:57;99999.97;;;14.76;49.43
61136;BME280;47021;51.340;12.432;2023-12-28T09:17:28;100009.16;;;14.72;49.35
61136;BME280;47021;51.340;12.432;2023-12-28T09:20:00;100003.19;;;14.62;49.25
61136;BME280;47021;51.340;12.432;2023-12-28T09:22:27;99998.09;;;14.35;50.35
61136;BME280;47021;51.340;12.432;2023-12-28T09:28:02;99991.19;;;14.16;51.17
61136;BME280;47021;51.340;12.432;2023-12-28T09:30:28;99979.88;;;14.67;49.99
61136;BME280;47021;51.340;12.432;2023-12-28T09:33:02;99975.13;;;15.05;49.24
61136;BME280;47021;51.340;12.432;2023-12-28T09:35:29;99976.03;;;14.54;49.58
61136;BME280;47021;51.340;12.432;2023-12-28T09:38:01;99971.59;;;14.29;50.54
61136;BME280;47021;51.340;12.432;2023-12-28T09:40:28;99965.75;;;14.35;50.93
61136;BME280;47021;51.340;12.432;2023-12-28T09:45:19;99963.00;;;14.44;50.78
61136;BME280;47021;51.340;12.432;2023-12-28T09:47:46;99962.72;;;14.47;50.80
61136;BME280;47021;51.340;12.432;2023-12-28T09:50:18;99965.50;;;14.46;50.58
61136;BME280;47021;51.340;12.432;2023-12-28T09:52:47;99971.00;;;14.35;50.82
61136;BME280;47021;51.340;12.432;2023-12-28T09:55:19;99963.38;;;14.83;49.80
61136;BME280;47021;51.340;12.432;2023-12-28T09:57:45;99965.38;;;14.55;50.49
61136;BME280;47021;51.340;12.432;2023-12-28T10:00:19;99964.47;;;14.72;50.53
61136;BME280;47021;51.340;12.432;2023-12-28T10:02:50;99960.25;;;14.79;50.03
61136;BME280;47021;51.340;12.432;2023-12-28T10:05:16;99968.59;;;14.41;50.97
61136;BME280;47021;51.340;12.432;2023-12-28T10:07:43;99977.31;;;14.75;50.10
61136;BME280;47021;51.340;12.432;2023-12-28T10:10:16;99974.69;;;14.75;50.07
61136;BME280;47021;51.340;12.432;2023-12-28T10:12:46;99969.03;;;14.96;49.32
61136;BME280;47021;51.340;12.432;2023-12-28T10:15:13;99976.13;;;15.12;49.42
61136;BME280;47021;51.340;12.432;2023-12-28T10:17:40;99981.94;;;15.23;48.47
61136;BME280;47021;51.340;12.432;2023-12-28T10:20:06;99976.91;;;15.04;49.01
61136;BME280;47021;51.340;12.432;2023-12-28T10:22:32;99977.97;;;14.44;50.25
61136;BME280;47021;51.340;12.432;2023-12-28T10:25:03;99985.34;;;14.23;50.88
61136;BME280;47021;51.340;12.432;2023-12-28T10:27:29;99980.28;;;14.03;51.43
61136;BME280;47021;51.340;12.432;2023-12-28T10:29:55;99974.44;;;14.35;51.41
61136;BME280;47021;51.340;12.432;2023-12-28T10:32:31;99972.31;;;14.98;49.42
61136;BME280;47021;51.340;12.432;2023-12-28T10:40:27;99991.03;;;14.36;51.58
61136;BME280;47021;51.340;12.432;2023-12-28T21:05:58;99853.88;;;13.90;50.49
